Time;durP1;ratioP1;P1;durP2;ratioP2;P2;SDS_P1;SDS_P2;PMS_P1;PMS_P2;Temp;Humidity;BMP_temperature;BMP_pressure;BME280_temperature;BME280_humidity;BME280_pressure;Samples;Min_cycle;Max_cycle;Signal;HPM_P1;HPM_P2
2022/03/23 00:01:18;;;;;;;16.63;9.83;;;;;;;;;;5012612;28;20411;-75
2022/03/23 00:03:46;;;;;;;14.20;9.67;;;;;;;;;;5013877;28;20776;-75
2022/03/23 00:06:13;;;;;;;17.67;9.87;;;;;;;;;;5013585;28;20403;-76
2022/03/23 00:08:39;;;;;;;17.80;10.00;;;;;;;;;;5013786;28;20876;-75
2022/03/23 00:11:05;;;;;;;18.50;9.33;;;;;;;;;;5013659;28;20426;-76
2022/03/23 00:13:32;;;;;;;14.30;8.70;;;;;;;;;;5012428;28;20934;-75
2022/03/23 00:15:59;;;;;;;14.63;9.87;;;;;;;;;;5013714;28;20403;-76
2022/03/23 00:18:25;;;;;;;18.83;10.90;;;;;;;;;;5013507;28;20526;-76
2022/03/23 00:20:52;;;;;;;18.33;10.33;;;;;;;;;;5013681;28;20405;-75
2022/03/23 00:23:18;;;;;;;16.90;10.90;;;;;;;;;;5013441;28;20399;-76
2022/03/23 00:25:44;;;;;;;16.50;8.80;;;;;;;;;;5013727;28;20466;-75
2022/03/23 00:28:10;;;;;;;15.33;9.67;;;;;;;;;;5013487;28;20447;-76
2022/03/23 00:30:36;;;;;;;15.90;10.23;;;;;;;;;;5013411;28;20453;-75
2022/03/23 00:33:03;;;;;;;11.73;8.10;;;;;;;;;;5013483;28;20911;-75
2022/03/23 00:35:32;;;;;;;16.00;9.47;;;;;;;;;;5013467;28;20841;-75
2022/03/23 00:37:59;;;;;;;14.80;9.90;;;;;;;;;;5013671;28;20411;-75
2022/03/23 00:40:25;;;;;;;15.30;10.27;;;;;;;;;;5013305;28;20411;-76
2022/03/23 00:42:51;;;;;;;18.33;10.47;;;;;;;;;;5013151;28;20419;-75
2022/03/23 00:45:18;;;;;;;13.03;8.67;;;;;;;;;;5013371;28;20999;-75
2022/03/23 00:47:46;;;;;;;13.00;8.43;;;;;;;;;;5013564;28;20419;-75
2022/03/23 00:50:12;;;;;;;15.30;8.40;;;;;;;;;;5013114;28;20484;-76
2022/03/23 00:52:38;;;;;;;19.33;9.87;;;;;;;;;;5013055;28;20510;-75
2022/03/23 00:55:09;;;;;;;13.23;8.73;;;;;;;;;;5013011;28;20850;-75
2022/03/23 00:57:36;;;;;;;14.67;8.43;;;;;;;;;;5013150;28;20625;-76
2022/03/23 01:00:06;;;;;;;11.90;9.40;;;;;;;;;;5012875;28;20426;-75
2022/03/23 01:02:32;;;;;;;15.33;9.57;;;;;;;;;;5013147;28;20400;-75
2022/03/23 01:04:58;;;;;;;12.67;9.00;;;;;;;;;;5012928;28;20419;-75
2022/03/23 01:07:24;;;;;;;12.93;8.93;;;;;;;;;;5013091;28;20398;-75
2022/03/23 01:09:50;;;;;;;11.00;7.53;;;;;;;;;;5013295;28;20479;-75
2022/03/23 01:12:16;;;;;;;15.53;8.70;;;;;;;;;;5011578;28;20419;-75
2022/03/23 01:14:43;;;;;;;13.63;8.10;;;;;;;;;;5013086;28;20791;-75
2022/03/23 01:17:09;;;;;;;15.33;9.00;;;;;;;;;;5012888;28;20400;-75
2022/03/23 01:19:36;;;;;;;15.30;9.30;;;;;;;;;;5015410;28;20426;-75
2022/03/23 01:22:02;;;;;;;14.00;8.73;;;;;;;;;;5016872;28;20406;-75
2022/03/23 01:24:28;;;;;;;11.67;7.80;;;;;;;;;;5016553;28;20427;-75
2022/03/23 01:26:54;;;;;;;14.57;8.17;;;;;;;;;;5015210;28;20411;-76
2022/03/23 01:29:21;;;;;;;12.33;7.80;;;;;;;;;;5016412;28;20803;-76
2022/03/23 01:31:47;;;;;;;12.57;8.33;;;;;;;;;;5016392;28;20902;-76
2022/03/23 01:34:13;;;;;;;9.83;8.03;;;;;;;;;;5015131;28;20431;-76
2022/03/23 01:36:39;;;;;;;10.70;7.30;;;;;;;;;;5016265;28;20403;-75
2022/03/23 01:39:05;;;;;;;9.37;6.70;;;;;;;;;;5016187;28;20407;-76
2022/03/23 01:41:34;;;;;;;10.07;7.80;;;;;;;;;;5016334;28;20492;-76
2022/03/23 01:44:00;;;;;;;13.63;8.00;;;;;;;;;;5016233;28;20434;-76
2022/03/23 01:46:26;;;;;;;17.10;8.33;;;;;;;;;;5016138;28;20403;-76
2022/03/23 01:48:52;;;;;;;10.20;7.13;;;;;;;;;;5016165;28;20494;-76
2022/03/23 01:51:18;;;;;;;10.83;7.57;;;;;;;;;;5016151;28;20770;-76
2022/03/23 01:53:44;;;;;;;12.63;7.87;;;;;;;;;;5015711;28;20431;-76
2022/03/23 01:56:13;;;;;;;10.87;7.30;;;;;;;;;;5015921;28;20384;-76
2022/03/23 01:58:39;;;;;;;9.30;6.90;;;;;;;;;;5015931;28;20774;-76
2022/03/23 02:01:05;;;;;;;12.60;9.07;;;;;;;;;;5016003;28;20403;-76
2022/03/23 02:03:31;;;;;;;11.40;7.50;;;;;;;;;;5014628;28;20474;-76
2022/03/23 02:05:57;;;;;;;12.60;7.10;;;;;;;;;;5015836;28;20834;-76
2022/03/23 02:08:23;;;;;;;10.30;7.73;;;;;;;;;;5015883;28;20414;-75
2022/03/23 02:10:49;;;;;;;13.33;8.03;;;;;;;;;;5015689;28;20486;-76
2022/03/23 02:13:15;;;;;;;11.13;8.17;;;;;;;;;;5015792;28;20404;-76
2022/03/23 02:15:41;;;;;;;17.33;9.03;;;;;;;;;;5014293;28;20811;-76
2022/03/23 02:18:07;;;;;;;10.93;7.87;;;;;;;;;;5015518;28;20437;-76
2022/03/23 02:20:33;;;;;;;10.90;8.13;;;;;;;;;;5015522;28;20407;-76
2022/03/23 02:23:00;;;;;;;12.17;8.77;;;;;;;;;;5015767;28;20407;-76
2022/03/23 02:25:27;;;;;;;11.80;8.77;;;;;;;;;;5015459;28;20427;-76
2022/03/23 02:27:54;;;;;;;15.57;9.43;;;;;;;;;;5015723;28;20468;-76
2022/03/23 02:30:21;;;;;;;12.73;9.67;;;;;;;;;;5010573;28;20456;-76
2022/03/23 02:32:48;;;;;;;16.13;10.60;;;;;;;;;;5008965;28;20939;-76
2022/03/23 02:35:15;;;;;;;11.50;8.27;;;;;;;;;;4995602;28;20951;-76
2022/03/23 02:37:41;;;;;;;11.87;8.67;;;;;;;;;;4995913;28;20462;-76
2022/03/23 02:40:08;;;;;;;14.43;9.60;;;;;;;;;;4995775;28;20468;-76
2022/03/23 02:42:34;;;;;;;18.50;10.07;;;;;;;;;;4995646;28;20775;-76
2022/03/23 02:45:00;;;;;;;13.37;9.40;;;;;;;;;;4995422;28;20460;-76
2022/03/23 02:47:26;;;;;;;16.23;9.33;;;;;;;;;;4995576;28;20404;-76
2022/03/23 02:49:52;;;;;;;13.40;8.60;;;;;;;;;;4995519;28;20443;-76
2022/03/23 02:52:18;;;;;;;11.53;7.60;;;;;;;;;;4995301;28;20447;-76
2022/03/23 03:03:14;;;;;;;9.77;7.57;;;;;;;;;;4995299;28;20511;-76
2022/03/23 03:05:40;;;;;;;9.93;8.53;;;;;;;;;;4995021;28;20424;-76
2022/03/23 03:10:51;;;;;;;14.00;8.77;;;;;;;;;;4995286;28;20506;-76
2022/03/23 03:13:17;;;;;;;12.90;8.40;;;;;;;;;;4993815;28;20799;-76
2022/03/23 03:15:43;;;;;;;16.10;8.57;;;;;;;;;;4994972;28;20916;-76
2022/03/23 03:18:09;;;;;;;17.60;9.20;;;;;;;;;;4994925;28;20397;-76
2022/03/23 03:20:35;;;;;;;12.63;7.50;;;;;;;;;;4995160;28;20412;-76
2022/03/23 03:23:01;;;;;;;10.20;7.70;;;;;;;;;;4995034;28;20416;-76
2022/03/23 03:25:27;;;;;;;12.17;7.47;;;;;;;;;;4994701;28;20432;-76
2022/03/23 03:27:53;;;;;;;10.10;7.50;;;;;;;;;;4994861;28;20454;-76
2022/03/23 03:30:20;;;;;;;14.83;8.03;;;;;;;;;;4993481;28;20889;-75
2022/03/23 03:32:46;;;;;;;12.00;8.03;;;;;;;;;;4994751;28;20454;-75
2022/03/23 03:35:13;;;;;;;14.83;8.20;;;;;;;;;;4993149;28;20431;-75
2022/03/23 03:37:40;;;;;;;12.23;8.10;;;;;;;;;;4994787;28;20415;-75
2022/03/23 03:40:07;;;;;;;17.30;10.33;;;;;;;;;;4994713;28;20849;-76
2022/03/23 03:42:33;;;;;;;10.50;8.07;;;;;;;;;;4994087;28;20495;-75
2022/03/23 03:44:59;;;;;;;11.50;7.07;;;;;;;;;;4994583;28;20799;-75
2022/03/23 03:47:25;;;;;;;16.97;7.63;;;;;;;;;;4994803;28;20405;-75
2022/03/23 03:49:52;;;;;;;10.37;7.47;;;;;;;;;;4994546;28;20956;-75
2022/03/23 03:52:18;;;;;;;10.13;6.70;;;;;;;;;;4994417;28;20532;-76
2022/03/23 03:54:45;;;;;;;11.63;8.20;;;;;;;;;;4993991;28;20472;-75
2022/03/23 03:57:11;;;;;;;11.20;7.80;;;;;;;;;;4994426;28;20463;-75
2022/03/23 03:59:37;;;;;;;11.10;8.73;;;;;;;;;;4994537;28;20876;-75
2022/03/23 04:02:03;;;;;;;10.37;8.20;;;;;;;;;;4996535;28;20424;-75
2022/03/23 04:04:29;;;;;;;10.93;7.70;;;;;;;;;;5004611;28;20440;-74
2022/03/23 04:06:56;;;;;;;14.40;7.23;;;;;;;;;;5013856;28;20434;-75
2022/03/23 04:09:22;;;;;;;12.10;7.33;;;;;;;;;;5012010;28;20455;-75
2022/03/23 04:11:48;;;;;;;13.33;8.10;;;;;;;;;;5013620;28;20415;-75
2022/03/23 04:14:14;;;;;;;12.50;9.07;;;;;;;;;;5012316;28;20806;-74
2022/03/23 04:16:40;;;;;;;11.27;7.83;;;;;;;;;;5013628;28;20779;-75
2022/03/23 04:19:07;;;;;;;16.50;8.47;;;;;;;;;;5013451;28;20399;-75
2022/03/23 04:21:33;;;;;;;10.10;7.70;;;;;;;;;;5013526;28;20814;-75
2022/03/23 04:23:59;;;;;;;13.90;8.60;;;;;;;;;;5013297;28;20430;-75
2022/03/23 04:26:25;;;;;;;10.47;8.70;;;;;;;;;;5013396;28;20404;-76
2022/03/23 04:28:51;;;;;;;18.20;8.70;;;;;;;;;;5013602;28;20772;-74
2022/03/23 04:31:18;;;;;;;12.53;8.40;;;;;;;;;;5013397;28;20927;-75
2022/03/23 04:33:44;;;;;;;14.10;8.30;;;;;;;;;;5013325;28;20994;-75
2022/03/23 04:36:13;;;;;;;14.73;8.40;;;;;;;;;;5013240;28;20775;-75
2022/03/23 04:38:39;;;;;;;13.20;8.50;;;;;;;;;;5013235;28;20482;-75
2022/03/23 04:41:05;;;;;;;12.23;7.43;;;;;;;;;;5013143;28;20423;-75
2022/03/23 04:43:32;;;;;;;11.03;8.70;;;;;;;;;;5013154;28;20410;-75
2022/03/23 04:45:58;;;;;;;11.90;8.07;;;;;;;;;;5009371;28;23933;-76
2022/03/23 04:48:25;;;;;;;17.60;8.50;;;;;;;;;;4993100;28;20835;-75
2022/03/23 04:50:51;;;;;;;14.37;7.83;;;;;;;;;;4993404;28;20455;-75
2022/03/23 04:53:17;;;;;;;11.87;8.90;;;;;;;;;;5006078;28;20435;-75
2022/03/23 04:55:43;;;;;;;11.30;8.53;;;;;;;;;;5017112;28;20906;-75
2022/03/23 04:58:09;;;;;;;18.43;9.50;;;;;;;;;;5017440;28;20451;-75
2022/03/23 05:00:35;;;;;;;15.50;9.30;;;;;;;;;;5017136;28;20415;-75
2022/03/23 05:03:01;;;;;;;14.20;8.90;;;;;;;;;;5017253;28;20499;-75
2022/03/23 05:05:27;;;;;;;15.30;7.53;;;;;;;;;;5017297;28;20545;-75
2022/03/23 05:07:54;;;;;;;11.10;7.53;;;;;;;;;;5017001;28;20413;-75
2022/03/23 05:10:20;;;;;;;10.73;6.50;;;;;;;;;;5017018;28;20541;-75
2022/03/23 05:12:46;;;;;;;13.47;8.90;;;;;;;;;;5017270;28;20415;-75
2022/03/23 05:15:14;;;;;;;14.03;9.53;;;;;;;;;;5016862;28;20473;-75
2022/03/23 05:17:40;;;;;;;16.00;7.83;;;;;;;;;;5017159;28;20414;-75
2022/03/23 05:20:07;;;;;;;9.47;7.00;;;;;;;;;;5016596;28;20415;-76
2022/03/23 05:22:33;;;;;;;13.00;7.30;;;;;;;;;;5017097;28;20877;-76
2022/03/23 05:24:59;;;;;;;9.30;7.00;;;;;;;;;;5016925;28;20494;-76
2022/03/23 05:27:25;;;;;;;16.83;8.37;;;;;;;;;;5016657;28;20411;-76
2022/03/23 05:29:51;;;;;;;8.87;7.23;;;;;;;;;;5016811;28;20469;-75
2022/03/23 05:32:18;;;;;;;12.20;8.00;;;;;;;;;;5017180;28;20930;-76
2022/03/23 05:34:48;;;;;;;11.60;7.43;;;;;;;;;;5017063;28;20419;-76
2022/03/23 05:37:14;;;;;;;9.70;7.77;;;;;;;;;;5016896;28;20868;-75
2022/03/23 05:39:40;;;;;;;11.70;7.60;;;;;;;;;;5016822;28;20412;-75
2022/03/23 05:42:07;;;;;;;13.10;7.53;;;;;;;;;;5016514;28;20403;-76
2022/03/23 05:44:34;;;;;;;13.50;7.70;;;;;;;;;;5016360;28;20431;-75
2022/03/23 05:47:00;;;;;;;12.87;8.50;;;;;;;;;;5016349;28;20934;-75
2022/03/23 05:49:27;;;;;;;13.17;8.30;;;;;;;;;;5015980;28;20446;-75
2022/03/23 05:51:53;;;;;;;13.87;9.20;;;;;;;;;;5016375;28;20915;-75
2022/03/23 05:54:19;;;;;;;15.13;8.03;;;;;;;;;;5043587;23;20553;-77
2022/03/23 05:56:45;;;;;;;15.07;9.07;;;;;;;;;;5054039;28;20863;-78
2022/03/23 05:59:11;;;;;;;12.90;7.03;;;;;;;;;;5056319;28;20480;-77
2022/03/23 06:01:38;;;;;;;15.17;9.63;;;;;;;;;;5055938;28;20763;-78
2022/03/23 06:04:04;;;;;;;13.57;8.50;;;;;;;;;;5055554;28;20961;-76
2022/03/23 06:06:30;;;;;;;12.27;8.70;;;;;;;;;;5056154;28;20476;-77
2022/03/23 06:08:56;;;;;;;15.50;8.80;;;;;;;;;;5055708;28;20398;-76
2022/03/23 06:11:22;;;;;;;14.20;8.90;;;;;;;;;;5055712;28;20401;-76
2022/03/23 06:13:49;;;;;;;17.73;9.73;;;;;;;;;;5056135;28;20940;-78
2022/03/23 06:16:16;;;;;;;12.93;8.77;;;;;;;;;;5056661;28;20504;-78
2022/03/23 06:18:42;;;;;;;18.27;9.60;;;;;;;;;;5058627;28;20401;-77
2022/03/23 06:21:08;;;;;;;18.77;8.77;;;;;;;;;;5060030;28;20405;-79
2022/03/23 06:23:34;;;;;;;11.50;8.17;;;;;;;;;;5056611;28;20449;-78
2022/03/23 06:26:01;;;;;;;13.00;9.43;;;;;;;;;;5056303;28;20421;-78
2022/03/23 06:28:27;;;;;;;18.57;8.50;;;;;;;;;;5056220;28;20433;-76
2022/03/23 06:30:54;;;;;;;12.77;8.90;;;;;;;;;;5055712;28;20452;-77
2022/03/23 06:33:20;;;;;;;13.60;8.13;;;;;;;;;;5056352;28;20484;-77
2022/03/23 06:35:47;;;;;;;15.60;8.10;;;;;;;;;;5057042;28;20445;-77
2022/03/23 06:38:13;;;;;;;19.30;8.40;;;;;;;;;;5056130;28;20439;-77
2022/03/23 06:40:39;;;;;;;16.03;8.97;;;;;;;;;;5055588;28;20525;-77
2022/03/23 06:43:05;;;;;;;12.33;8.60;;;;;;;;;;5054729;28;20483;-77
2022/03/23 06:45:32;;;;;;;10.70;8.43;;;;;;;;;;5056300;28;20441;-77
2022/03/23 06:47:58;;;;;;;19.17;8.67;;;;;;;;;;5056229;28;20834;-77
2022/03/23 06:50:24;;;;;;;10.73;7.73;;;;;;;;;;5056686;28;20523;-77
2022/03/23 06:52:51;;;;;;;11.93;7.70;;;;;;;;;;5055343;28;20398;-77
2022/03/23 06:55:17;;;;;;;18.33;8.03;;;;;;;;;;5055895;28;20433;-77
2022/03/23 06:57:43;;;;;;;15.87;8.63;;;;;;;;;;5056742;28;20410;-77
2022/03/23 07:00:13;;;;;;;13.40;8.83;;;;;;;;;;5056084;28;20815;-77
2022/03/23 07:02:49;;;;;;;11.57;6.90;;;;;;;;;;5055683;28;20401;-77
2022/03/23 07:05:16;;;;;;;14.37;8.20;;;;;;;;;;5053799;28;20436;-77
2022/03/23 07:10:28;;;;;;;12.00;8.03;;;;;;;;;;5063939;28;20598;-76
2022/03/23 07:12:54;;;;;;;12.63;7.73;;;;;;;;;;5050453;28;20428;-76
2022/03/23 07:15:20;;;;;;;13.07;8.07;;;;;;;;;;5054614;28;20898;-78
2022/03/23 07:17:46;;;;;;;13.00;8.03;;;;;;;;;;5051432;28;21044;-76
2022/03/23 07:20:12;;;;;;;12.03;8.13;;;;;;;;;;5047898;28;20516;-77
2022/03/23 07:22:38;;;;;;;14.50;8.17;;;;;;;;;;5050970;28;20468;-76
2022/03/23 07:25:05;;;;;;;12.87;8.63;;;;;;;;;;5053228;28;20460;-78
2022/03/23 07:27:31;;;;;;;12.93;7.90;;;;;;;;;;5053499;28;20421;-77
2022/03/23 07:29:58;;;;;;;13.83;8.03;;;;;;;;;;5052361;28;20477;-78
2022/03/23 07:32:24;;;;;;;19.83;8.67;;;;;;;;;;5053655;28;20422;-77
2022/03/23 07:34:50;;;;;;;14.70;8.80;;;;;;;;;;5052403;28;20532;-77
2022/03/23 07:37:16;;;;;;;16.77;8.40;;;;;;;;;;5052169;28;20951;-77
2022/03/23 07:39:42;;;;;;;12.73;9.20;;;;;;;;;;5051370;28;20426;-76
2022/03/23 07:42:09;;;;;;;12.93;9.70;;;;;;;;;;5047501;28;20454;-76
2022/03/23 07:44:35;;;;;;;15.90;9.70;;;;;;;;;;5053855;28;20244;-77
2022/03/23 07:47:01;;;;;;;15.80;10.30;;;;;;;;;;5052678;28;20461;-76
2022/03/23 07:49:27;;;;;;;10.50;9.07;;;;;;;;;;5052066;28;20476;-77
2022/03/23 07:51:53;;;;;;;12.53;9.67;;;;;;;;;;5051365;28;20425;-77
2022/03/23 07:54:20;;;;;;;13.30;8.60;;;;;;;;;;5052917;28;20420;-76
2022/03/23 07:56:46;;;;;;;14.70;9.77;;;;;;;;;;5050374;28;20406;-75
2022/03/23 07:59:12;;;;;;;15.00;10.30;;;;;;;;;;5051910;28;20414;-77
2022/03/23 08:01:38;;;;;;;12.83;10.47;;;;;;;;;;5052963;28;20955;-75
2022/03/23 08:04:05;;;;;;;13.00;9.63;;;;;;;;;;5052172;28;20846;-76
2022/03/23 08:06:35;;;;;;;18.00;10.60;;;;;;;;;;5051712;28;20471;-75
2022/03/23 08:09:02;;;;;;;16.60;11.33;;;;;;;;;;5050943;28;20413;-75
2022/03/23 08:11:28;;;;;;;15.47;10.40;;;;;;;;;;5051520;28;20488;-76
2022/03/23 08:13:54;;;;;;;14.27;10.07;;;;;;;;;;5052131;28;20440;-76
2022/03/23 08:16:20;;;;;;;18.90;10.47;;;;;;;;;;5045858;28;20468;-75
2022/03/23 08:18:46;;;;;;;15.80;10.37;;;;;;;;;;5051246;28;20425;-76
2022/03/23 08:21:12;;;;;;;14.37;10.73;;;;;;;;;;5046054;28;20431;-75
2022/03/23 08:23:40;;;;;;;16.17;11.40;;;;;;;;;;5051322;28;20414;-76
2022/03/23 08:26:09;;;;;;;17.13;11.20;;;;;;;;;;5051811;28;20447;-77
2022/03/23 08:28:36;;;;;;;14.30;10.63;;;;;;;;;;5043750;28;20178;-76
2022/03/23 08:31:02;;;;;;;15.47;9.77;;;;;;;;;;5050593;28;20457;-76
2022/03/23 08:33:32;;;;;;;18.00;10.00;;;;;;;;;;5049217;28;20921;-77
2022/03/23 08:35:58;;;;;;;14.07;10.97;;;;;;;;;;5047738;28;20441;-76
2022/03/23 08:38:24;;;;;;;14.70;11.20;;;;;;;;;;5052214;28;20414;-76
2022/03/23 08:40:51;;;;;;;15.13;10.47;;;;;;;;;;5041375;28;20513;-76
2022/03/23 08:43:17;;;;;;;13.43;10.20;;;;;;;;;;5048701;28;20417;-77
2022/03/23 08:45:43;;;;;;;17.93;11.10;;;;;;;;;;5050248;28;20469;-76
2022/03/23 08:48:09;;;;;;;13.70;10.07;;;;;;;;;;5047645;28;20417;-76
2022/03/23 08:50:36;;;;;;;13.40;9.47;;;;;;;;;;5051076;28;20500;-77
2022/03/23 08:53:02;;;;;;;17.43;11.07;;;;;;;;;;5049886;28;20417;-76
2022/03/23 08:55:29;;;;;;;15.37;9.50;;;;;;;;;;5049936;28;20460;-77
2022/03/23 08:57:55;;;;;;;15.87;9.63;;;;;;;;;;5044541;28;20485;-77
2022/03/23 09:00:21;;;;;;;15.63;10.10;;;;;;;;;;5050669;28;20441;-76
2022/03/23 09:02:47;;;;;;;16.73;9.63;;;;;;;;;;5048591;28;20428;-77
2022/03/23 09:05:14;;;;;;;13.50;9.50;;;;;;;;;;5051563;28;20490;-77
2022/03/23 09:07:41;;;;;;;17.57;10.10;;;;;;;;;;5051065;28;20436;-77
2022/03/23 09:10:08;;;;;;;15.13;10.53;;;;;;;;;;5048693;28;20492;-77
2022/03/23 09:12:34;;;;;;;15.17;9.67;;;;;;;;;;5049457;28;20507;-76
2022/03/23 09:15:00;;;;;;;15.87;9.90;;;;;;;;;;5050780;28;20444;-76
2022/03/23 09:17:26;;;;;;;14.20;11.07;;;;;;;;;;5050764;28;20429;-75
2022/03/23 09:19:52;;;;;;;14.53;10.80;;;;;;;;;;5050370;28;21096;-76
2022/03/23 09:22:19;;;;;;;12.37;10.00;;;;;;;;;;5051376;28;20824;-76
2022/03/23 09:24:45;;;;;;;16.03;11.20;;;;;;;;;;5051593;28;20957;-74
2022/03/23 09:27:11;;;;;;;17.33;10.57;;;;;;;;;;5048957;28;20493;-75
2022/03/23 09:29:37;;;;;;;17.73;12.23;;;;;;;;;;5043629;28;20463;-75
2022/03/23 09:32:09;;;;;;;21.37;11.83;;;;;;;;;;5048789;28;20528;-75
2022/03/23 09:34:35;;;;;;;16.80;11.57;;;;;;;;;;5052215;28;20433;-75
2022/03/23 09:39:46;;;;;;;16.03;11.20;;;;;;;;;;5051976;28;20401;-75
2022/03/23 09:42:12;;;;;;;11.83;9.90;;;;;;;;;;5055718;28;20416;-75
2022/03/23 09:44:38;;;;;;;16.77;10.87;;;;;;;;;;5059622;28;20453;-76
2022/03/23 09:47:05;;;;;;;18.40;11.80;;;;;;;;;;5054747;28;20427;-77
2022/03/23 09:49:31;;;;;;;16.17;11.98;;;;;;;;;;5055325;28;20526;-75
2022/03/23 09:51:58;;;;;;;15.80;12.50;;;;;;;;;;5054354;28;20175;-76
2022/03/23 09:54:24;;;;;;;15.33;10.77;;;;;;;;;;5055093;28;20461;-75
2022/03/23 09:56:50;;;;;;;14.43;11.57;;;;;;;;;;5054335;28;20412;-76
2022/03/23 09:59:16;;;;;;;22.70;12.30;;;;;;;;;;5053236;28;20451;-76
2022/03/23 10:01:51;;;;;;;18.80;11.03;;;;;;;;;;5054223;28;20414;-76
2022/03/23 10:04:20;;;;;;;17.50;11.60;;;;;;;;;;5053103;28;20480;-77
2022/03/23 10:06:57;;;;;;;19.50;12.53;;;;;;;;;;5054836;28;20432;-76
2022/03/23 10:09:26;;;;;;;16.60;10.47;;;;;;;;;;5050479;28;20960;-77
2022/03/23 10:12:11;;;;;;;17.10;12.07;;;;;;;;;;5059284;28;20769;-77
2022/03/23 10:14:52;;;;;;;18.23;12.40;;;;;;;;;;5053279;28;20836;-77
2022/03/23 10:17:36;;;;;;;14.80;11.40;;;;;;;;;;5063660;28;20902;-77
2022/03/23 10:20:03;;;;;;;15.60;11.17;;;;;;;;;;5053421;28;20406;-77
2022/03/23 10:22:30;;;;;;;17.83;11.17;;;;;;;;;;5052524;28;20443;-77
2022/03/23 10:24:56;;;;;;;21.67;11.50;;;;;;;;;;5054398;28;20508;-76
2022/03/23 10:27:25;;;;;;;16.60;12.87;;;;;;;;;;5050772;28;20459;-77
2022/03/23 10:29:52;;;;;;;14.37;10.37;;;;;;;;;;5058742;28;20516;-77
2022/03/23 10:32:21;;;;;;;16.40;12.00;;;;;;;;;;5051437;28;20416;-75
2022/03/23 10:34:47;;;;;;;17.83;11.97;;;;;;;;;;5052357;28;20257;-75
2022/03/23 10:37:14;;;;;;;13.90;12.03;;;;;;;;;;5051503;28;20493;-76
2022/03/23 10:39:40;;;;;;;15.43;11.63;;;;;;;;;;5050800;28;21138;-76
2022/03/23 10:42:08;;;;;;;18.13;11.20;;;;;;;;;;5052152;28;20496;-77
2022/03/23 10:44:34;;;;;;;17.20;12.20;;;;;;;;;;5053746;28;20468;-76
2022/03/23 10:47:01;;;;;;;15.70;11.50;;;;;;;;;;5055676;28;20421;-76
2022/03/23 10:49:31;;;;;;;13.90;10.97;;;;;;;;;;5054236;28;20515;-77
2022/03/23 10:52:07;;;;;;;13.30;11.47;;;;;;;;;;5056732;28;20425;-77
2022/03/23 10:54:33;;;;;;;15.37;11.67;;;;;;;;;;5053356;28;20433;-78
2022/03/23 10:56:59;;;;;;;14.03;10.80;;;;;;;;;;5055390;28;20437;-77
2022/03/23 10:59:26;;;;;;;16.30;12.35;;;;;;;;;;5052927;28;20434;-78
2022/03/23 11:01:58;;;;;;;16.93;12.77;;;;;;;;;;5053461;28;20228;-78
2022/03/23 11:04:28;;;;;;;15.10;12.48;;;;;;;;;;5054002;28;20463;-78
2022/03/23 11:06:56;;;;;;;18.10;12.48;;;;;;;;;;5051944;28;20412;-76
2022/03/23 11:18:04;;;;;;;13.47;11.93;;;;;;;;;;5052025;28;20447;-78
2022/03/23 11:20:41;;;;;;;16.00;11.90;;;;;;;;;;5054045;28;20420;-77
2022/03/23 11:23:18;;;;;;;15.33;11.93;;;;;;;;;;5043828;28;20964;-77
2022/03/23 11:25:45;;;;;;;14.70;11.87;;;;;;;;;;5049031;28;20456;-77
2022/03/23 11:28:13;;;;;;;16.00;11.77;;;;;;;;;;5049275;28;20608;-77
2022/03/23 11:30:39;;;;;;;14.60;11.40;;;;;;;;;;5043775;28;20952;-77
2022/03/23 11:33:10;;;;;;;19.50;12.50;;;;;;;;;;5050398;28;20429;-77
2022/03/23 11:35:37;;;;;;;15.77;13.00;;;;;;;;;;5046536;28;20450;-78
2022/03/23 11:38:05;;;;;;;15.73;13.40;;;;;;;;;;5049948;28;20436;-77
2022/03/23 11:40:31;;;;;;;13.67;11.63;;;;;;;;;;5053277;28;20179;-75
2022/03/23 11:42:58;;;;;;;16.80;11.77;;;;;;;;;;5046595;28;20427;-78
2022/03/23 11:45:24;;;;;;;13.77;12.27;;;;;;;;;;5049884;28;20462;-78
2022/03/23 11:48:10;;;;;;;13.67;11.93;;;;;;;;;;5049570;28;20426;-77
2022/03/23 11:50:48;;;;;;;17.33;14.13;;;;;;;;;;5042565;28;20968;-77
2022/03/23 11:53:20;;;;;;;17.60;12.57;;;;;;;;;;5051471;28;20464;-77
2022/03/23 11:55:50;;;;;;;15.80;12.35;;;;;;;;;;5043257;28;20436;-77
2022/03/23 11:58:18;;;;;;;15.13;12.97;;;;;;;;;;5052814;28;20254;-77
2022/03/23 12:00:52;;;;;;;14.53;12.07;;;;;;;;;;5052691;28;20552;-77
2022/03/23 12:03:36;;;;;;;15.07;11.00;;;;;;;;;;5052792;28;20429;-76
2022/03/23 12:06:09;;;;;;;16.83;13.23;;;;;;;;;;5047541;28;20418;-76
2022/03/23 12:08:50;;;;;;;14.53;11.00;;;;;;;;;;5053601;28;20443;-76
2022/03/23 12:11:35;;;;;;;14.97;11.30;;;;;;;;;;5052890;28;20544;-76
2022/03/23 12:14:08;;;;;;;18.77;13.00;;;;;;;;;;5054474;28;20484;-76
2022/03/23 12:16:47;;;;;;;15.13;11.70;;;;;;;;;;5055334;28;20413;-76
2022/03/23 12:19:17;;;;;;;13.77;11.57;;;;;;;;;;5049965;28;20441;-76
2022/03/23 12:21:59;;;;;;;17.13;12.83;;;;;;;;;;5050355;28;20422;-76
2022/03/23 12:24:43;;;;;;;18.63;12.67;;;;;;;;;;5050780;28;20442;-76
2022/03/23 12:27:28;;;;;;;20.50;11.97;;;;;;;;;;5053009;28;20820;-76
2022/03/23 12:29:56;;;;;;;13.33;10.63;;;;;;;;;;5053203;28;20502;-76
2022/03/23 12:32:22;;;;;;;15.10;10.97;;;;;;;;;;5051692;28;20424;-75
2022/03/23 12:34:51;;;;;;;17.40;10.77;;;;;;;;;;5054086;28;20548;-76
2022/03/23 12:37:19;;;;;;;18.17;11.90;;;;;;;;;;5049152;28;20785;-75
2022/03/23 12:39:53;;;;;;;13.93;11.40;;;;;;;;;;5051010;28;20836;-76
2022/03/23 12:42:22;;;;;;;16.40;11.37;;;;;;;;;;5049044;28;20414;-76
2022/03/23 12:45:14;;;;;;;14.50;10.20;;;;;;;;;;5049617;28;20541;-76
2022/03/23 12:47:49;;;;;;;14.80;10.70;;;;;;;;;;5062125;28;20466;-76
2022/03/23 12:58:33;;;;;;;15.43;11.10;;;;;;;;;;5049289;28;20412;-76
2022/03/23 13:01:15;;;;;;;15.27;11.30;;;;;;;;;;5053447;28;20514;-75
2022/03/23 13:03:41;;;;;;;14.23;11.77;;;;;;;;;;5056773;28;20422;-75
2022/03/23 13:06:09;;;;;;;15.17;11.80;;;;;;;;;;5054683;28;20441;-75
2022/03/23 13:08:47;;;;;;;14.80;11.53;;;;;;;;;;5052608;28;20413;-76
2022/03/23 13:11:13;;;;;;;15.93;12.10;;;;;;;;;;5047237;28;20481;-75
2022/03/23 13:13:40;;;;;;;15.63;12.03;;;;;;;;;;5047373;28;20439;-76
2022/03/23 13:16:11;;;;;;;15.63;12.50;;;;;;;;;;5049784;28;20968;-76
2022/03/23 13:18:37;;;;;;;14.57;11.53;;;;;;;;;;5055001;28;20836;-76
2022/03/23 13:21:03;;;;;;;16.40;11.97;;;;;;;;;;5055739;28;20475;-76
2022/03/23 13:23:29;;;;;;;14.20;12.20;;;;;;;;;;5045318;28;20429;-75
2022/03/23 13:26:09;;;;;;;18.07;13.27;;;;;;;;;;5056773;28;20445;-76
2022/03/23 13:28:36;;;;;;;15.10;13.07;;;;;;;;;;5060858;28;20430;-75
2022/03/23 13:31:04;;;;;;;13.60;10.60;;;;;;;;;;5059140;28;20460;-74
2022/03/23 13:33:44;;;;;;;16.90;11.77;;;;;;;;;;5051109;28;20421;-76
2022/03/23 13:36:11;;;;;;;14.90;12.60;;;;;;;;;;5055354;28;20450;-76
2022/03/23 13:38:39;;;;;;;14.70;12.60;;;;;;;;;;5058448;28;20424;-77
2022/03/23 13:43:55;;;;;;;18.40;12.93;;;;;;;;;;5050838;28;20484;-75
2022/03/23 13:46:22;;;;;;;14.33;11.10;;;;;;;;;;5056750;28;20441;-78
2022/03/23 13:48:59;;;;;;;17.17;13.03;;;;;;;;;;5054387;28;20417;-75
2022/03/23 13:51:26;;;;;;;14.73;11.20;;;;;;;;;;5055846;28;20483;-76
2022/03/23 13:53:57;;;;;;;13.43;11.93;;;;;;;;;;5049753;28;20455;-77
2022/03/23 13:56:24;;;;;;;14.90;11.87;;;;;;;;;;5052355;28;20218;-76
2022/03/23 13:58:50;;;;;;;15.30;11.90;;;;;;;;;;5063347;28;20505;-78
2022/03/23 14:01:19;;;;;;;17.07;12.23;;;;;;;;;;5056352;28;20446;-78
2022/03/23 14:03:46;;;;;;;13.00;11.00;;;;;;;;;;5060379;28;20445;-78
2022/03/23 14:06:15;;;;;;;17.20;13.10;;;;;;;;;;5063841;28;20441;-79
2022/03/23 14:08:54;;;;;;;14.00;11.50;;;;;;;;;;5064085;28;20417;-79
2022/03/23 14:14:22;;;;;;;18.70;12.57;;;;;;;;;;5049992;28;20432;-78
2022/03/23 14:17:08;;;;;;;16.43;14.10;;;;;;;;;;5064556;28;20405;-77
2022/03/23 14:19:36;;;;;;;17.00;11.40;;;;;;;;;;5049482;28;20417;-78
2022/03/23 14:22:06;;;;;;;12.60;11.00;;;;;;;;;;5063419;28;20417;-78
2022/03/23 14:24:34;;;;;;;14.90;11.80;;;;;;;;;;5065132;28;20449;-78
2022/03/23 14:27:13;;;;;;;12.37;11.10;;;;;;;;;;5064889;28;20421;-77
2022/03/23 14:29:41;;;;;;;17.53;12.20;;;;;;;;;;5058341;28;20453;-78
2022/03/23 14:32:11;;;;;;;14.40;12.07;;;;;;;;;;5062146;28;20485;-78
2022/03/23 14:34:38;;;;;;;17.90;11.63;;;;;;;;;;5063515;28;20449;-78
2022/03/23 14:37:08;;;;;;;20.70;13.37;;;;;;;;;;5064421;28;20409;-79
2022/03/23 14:39:48;;;;;;;13.67;10.80;;;;;;;;;;5059526;28;20477;-79
2022/03/23 14:42:14;;;;;;;14.80;10.40;;;;;;;;;;5061606;28;20413;-79
2022/03/23 14:44:43;;;;;;;17.73;11.10;;;;;;;;;;5058219;28;20442;-77
2022/03/23 14:47:10;;;;;;;15.30;11.90;;;;;;;;;;5058779;28;20440;-78
2022/03/23 14:49:41;;;;;;;17.03;12.30;;;;;;;;;;5053391;28;20890;-77
2022/03/23 14:52:08;;;;;;;17.97;10.63;;;;;;;;;;5056480;28;20412;-78
2022/03/23 14:54:39;;;;;;;16.87;11.47;;;;;;;;;;5056405;28;20449;-79
2022/03/23 14:57:05;;;;;;;11.77;10.50;;;;;;;;;;5057747;28;20450;-79
2022/03/23 14:59:32;;;;;;;12.60;9.83;;;;;;;;;;5061946;28;20477;-78
2022/03/23 15:01:59;;;;;;;24.87;10.67;;;;;;;;;;5059386;28;20421;-78
2022/03/23 15:04:28;;;;;;;13.20;10.63;;;;;;;;;;5053154;28;20450;-77
2022/03/23 15:15:11;;;;;;;16.63;12.17;;;;;;;;;;5042834;28;20528;-78